Time;durP1;ratioP1;P1;durP2;ratioP2;P2;SDS_P1;SDS_P2;PMS_P1;PMS_P2;Temp;Humidity;BMP_temperature;BMP_pressure;BME280_temperature;BME280_humidity;BME280_pressure;Samples;Min_cycle;Max_cycle;Signal;HPM_P1;HPM_P2
2023/11/28 00:00:33;;;;;;;;;;;;;;;22.08;18.09;96389.72;5090796;28;19942;-88
2023/11/28 00:02:59;;;;;;;;;;;;;;;21.81;18.02;96384.00;5094011;28;19920;-88
2023/11/28 00:05:25;;;;;;;;;;;;;;;21.38;18.68;96384.13;5095669;28;19928;-88
2023/11/28 00:07:52;;;;;;;;;;;;;;;20.70;19.37;96380.16;5094670;28;21220;-88
2023/11/28 00:10:18;;;;;;;;;;;;;;;20.42;19.94;96376.38;5095744;28;19920;-88
2023/11/28 00:12:44;;;;;;;;;;;;;;;20.25;20.04;96376.97;5095791;28;19920;-88
2023/11/28 00:15:10;;;;;;;;;;;;;;;20.25;20.09;96383.34;5095036;28;19926;-88
2023/11/28 00:17:36;;;;;;;;;;;;;;;20.11;20.39;96372.63;5095086;28;19920;-87
2023/11/28 00:20:02;;;;;;;;;;;;;;;20.32;20.26;96382.31;5091194;28;19990;-87
2023/11/28 00:22:28;;;;;;;;;;;;;;;20.47;20.18;96377.81;5091248;28;19977;-88
2023/11/28 00:24:54;;;;;;;;;;;;;;;20.57;19.82;96371.09;5090773;28;19920;-87
2023/11/28 00:27:20;;;;;;;;;;;;;;;20.61;20.00;96368.94;5092021;28;20019;-87
2023/11/28 00:29:46;;;;;;;;;;;;;;;20.62;20.03;96368.50;5091800;28;19920;-87
2023/11/28 00:32:12;;;;;;;;;;;;;;;20.65;19.99;96369.63;5099169;28;20384;-87
2023/11/28 00:34:38;;;;;;;;;;;;;;;20.68;20.01;96361.13;5095070;28;20456;-87
2023/11/28 00:37:05;;;;;;;;;;;;;;;20.02;20.78;96362.16;5094342;28;20298;-88
2023/11/28 00:39:31;;;;;;;;;;;;;;;20.07;20.71;96371.19;5094403;28;19968;-88
2023/11/28 00:41:57;;;;;;;;;;;;;;;19.56;21.45;96367.66;5091900;28;19920;-88
2023/11/28 00:44:24;;;;;;;;;;;;;;;20.07;20.86;96365.63;5095194;28;20333;-88
2023/11/28 00:46:50;;;;;;;;;;;;;;;19.71;21.32;96360.41;5093556;28;19920;-87
2023/11/28 00:49:16;;;;;;;;;;;;;;;19.80;21.29;96364.09;5090810;28;19923;-87
2023/11/28 00:51:43;;;;;;;;;;;;;;;20.19;21.28;96364.81;5096758;28;19926;-88
2023/11/28 00:54:10;;;;;;;;;;;;;;;20.75;20.63;96354.50;5095601;28;20467;-87
2023/11/28 00:56:36;;;;;;;;;;;;;;;20.67;20.68;96350.41;5092091;28;19927;-88
2023/11/28 00:59:02;;;;;;;;;;;;;;;20.28;21.12;96348.22;5093433;28;19920;-87
2023/11/28 01:01:28;;;;;;;;;;;;;;;19.72;21.64;96348.06;5094209;28;19982;-88
2023/11/28 01:03:54;;;;;;;;;;;;;;;19.90;21.48;96340.69;5094243;28;19920;-88
2023/11/28 01:06:20;;;;;;;;;;;;;;;20.38;21.08;96324.75;5092484;28;20360;-88
2023/11/28 01:08:46;;;;;;;;;;;;;;;19.81;21.61;96320.31;5092412;28;19931;-88
2023/11/28 01:11:13;;;;;;;;;;;;;;;19.59;21.96;96327.78;5093938;28;19932;-88
2023/11/28 01:13:39;;;;;;;;;;;;;;;19.69;21.81;96324.69;5094177;28;19927;-88
2023/11/28 01:16:05;;;;;;;;;;;;;;;19.71;21.84;96321.44;5090437;28;19927;-88
2023/11/28 01:18:31;;;;;;;;;;;;;;;20.20;21.36;96314.22;5092997;28;20315;-88
2023/11/28 01:20:58;;;;;;;;;;;;;;;20.05;21.33;96304.78;5076012;28;20295;-88
2023/11/28 01:23:24;;;;;;;;;;;;;;;19.66;21.78;96303.28;5089423;28;19925;-88
2023/11/28 01:25:50;;;;;;;;;;;;;;;18.04;23.55;96296.13;5092629;28;20010;-88
2023/11/28 01:28:16;;;;;;;;;;;;;;;18.31;23.41;96291.00;5094046;28;19942;-88
2023/11/28 01:30:42;;;;;;;;;;;;;;;18.40;23.44;96286.38;5091593;28;19926;-87
2023/11/28 01:33:09;;;;;;;;;;;;;;;19.22;22.59;96273.66;5092721;28;20318;-87
2023/11/28 01:35:37;;;;;;;;;;;;;;;18.70;22.94;96279.59;5093962;28;19973;-87
2023/11/28 01:38:03;;;;;;;;;;;;;;;18.12;23.91;96280.81;5092180;28;19920;-88
2023/11/28 01:40:29;;;;;;;;;;;;;;;18.77;23.21;96278.63;5093844;28;19920;-88
2023/11/28 01:42:55;;;;;;;;;;;;;;;18.63;23.30;96271.47;5093228;28;19928;-88
2023/11/28 01:45:22;;;;;;;;;;;;;;;18.99;22.69;96268.44;5092677;28;19924;-88
2023/11/28 01:47:51;;;;;;;;;;;;;;;19.15;22.70;96251.63;5091304;28;20428;-88
2023/11/28 01:50:18;;;;;;;;;;;;;;;18.71;23.07;96258.16;5093121;28;20268;-88
2023/11/28 01:52:44;;;;;;;;;;;;;;;19.11;22.82;96248.19;5093564;28;20296;-88
2023/11/28 01:55:11;;;;;;;;;;;;;;;19.75;22.06;96242.13;5093175;28;19928;-88
2023/11/28 01:57:37;;;;;;;;;;;;;;;20.13;21.69;96235.66;5090002;28;19920;-88
2023/11/28 02:00:04;;;;;;;;;;;;;;;20.14;21.69;96234.44;5093711;28;20379;-88
2023/11/28 02:02:30;;;;;;;;;;;;;;;20.04;21.81;96221.66;5093719;28;19927;-88
2023/11/28 02:04:56;;;;;;;;;;;;;;;19.86;22.04;96225.84;5093683;28;20019;-87
2023/11/28 02:07:22;;;;;;;;;;;;;;;19.82;22.01;96211.25;5091652;28;19920;-88
2023/11/28 02:09:48;;;;;;;;;;;;;;;19.26;22.70;96213.91;5091069;28;20094;-87
2023/11/28 02:12:15;;;;;;;;;;;;;;;17.62;24.61;96214.75;5089476;28;19931;-87
2023/11/28 02:14:44;;;;;;;;;;;;;;;17.32;25.15;96207.50;5093151;28;20025;-88
2023/11/28 02:17:10;;;;;;;;;;;;;;;17.99;24.42;96203.03;5089599;28;19928;-88
2023/11/28 02:19:36;;;;;;;;;;;;;;;18.07;24.40;96195.25;5089834;28;19926;-88
2023/11/28 02:22:03;;;;;;;;;;;;;;;18.17;24.38;96188.63;5091854;28;20326;-88
2023/11/28 02:24:33;;;;;;;;;;;;;;;18.02;24.52;96184.72;5090262;28;20383;-88
2023/11/28 02:26:59;;;;;;;;;;;;;;;18.48;23.99;96173.84;5091482;28;20024;-88
2023/11/28 02:29:25;;;;;;;;;;;;;;;17.07;25.62;96177.63;5090074;28;20479;-88
2023/11/28 02:31:51;;;;;;;;;;;;;;;16.83;25.82;96173.44;5091365;28;19933;-88
2023/11/28 02:34:17;;;;;;;;;;;;;;;16.86;26.39;96167.06;5089843;28;20368;-88
2023/11/28 02:36:44;;;;;;;;;;;;;;;15.97;27.50;96172.16;5088713;28;19960;-88
2023/11/28 02:39:10;;;;;;;;;;;;;;;16.91;26.39;96157.44;5092376;28;19920;-88
2023/11/28 02:41:36;;;;;;;;;;;;;;;15.63;27.54;96161.34;5091042;28;19926;-88
2023/11/28 02:44:02;;;;;;;;;;;;;;;14.52;29.64;96160.81;5092096;28;19928;-88
2023/11/28 02:46:28;;;;;;;;;;;;;;;14.64;29.50;96151.16;5087757;28;19920;-88
2023/11/28 02:48:54;;;;;;;;;;;;;;;15.27;28.66;96141.84;5092725;28;19920;-88
2023/11/28 02:51:20;;;;;;;;;;;;;;;16.49;27.04;96131.47;5091401;28;19927;-88
2023/11/28 02:53:46;;;;;;;;;;;;;;;16.36;26.84;96131.34;5092669;28;20016;-88
2023/11/28 02:56:12;;;;;;;;;;;;;;;16.79;26.42;96124.88;5092662;28;19970;-88
2023/11/28 02:58:38;;;;;;;;;;;;;;;16.67;26.41;96128.31;5092474;28;20028;-87
2023/11/28 03:01:05;;;;;;;;;;;;;;;16.85;26.19;96123.91;5091390;28;19927;-88
2023/11/28 03:03:31;;;;;;;;;;;;;;;15.07;28.72;96124.44;5092684;28;19920;-88
2023/11/28 03:05:57;;;;;;;;;;;;;;;15.84;27.84;96117.47;5092669;28;19927;-87
2023/11/28 03:08:23;;;;;;;;;;;;;;;16.52;26.83;96116.81;5091986;28;20006;-88
2023/11/28 03:10:49;;;;;;;;;;;;;;;17.09;26.28;96108.66;5088827;28;20363;-88
2023/11/28 03:13:15;;;;;;;;;;;;;;;17.22;25.81;96109.50;5092153;28;19974;-88
2023/11/28 03:15:41;;;;;;;;;;;;;;;18.20;24.74;96102.44;5090418;28;19924;-88
2023/11/28 03:18:08;;;;;;;;;;;;;;;18.98;23.79;96108.34;5090137;28;19920;-87
2023/11/28 03:20:37;;;;;;;;;;;;;;;18.99;23.72;96105.13;5090557;28;19920;-87
2023/11/28 03:23:03;;;;;;;;;;;;;;;18.32;24.41;96095.34;5091296;28;19932;-87
2023/11/28 03:25:29;;;;;;;;;;;;;;;19.13;23.51;96090.75;5092158;28;19928;-88
2023/11/28 03:27:56;;;;;;;;;;;;;;;19.38;23.19;96095.50;5092423;28;19916;-86
2023/11/28 03:30:24;;;;;;;;;;;;;;;18.80;23.72;96092.25;5092121;28;19935;-87
2023/11/28 03:32:50;;;;;;;;;;;;;;;17.68;25.29;96099.19;5093279;28;20291;-87
2023/11/28 03:35:16;;;;;;;;;;;;;;;16.55;26.54;96096.53;5094982;28;19920;-86
2023/11/28 03:37:42;;;;;;;;;;;;;;;16.27;27.40;96086.06;5096259;28;19973;-87
2023/11/28 03:40:09;;;;;;;;;;;;;;;15.02;29.15;96086.22;5093284;28;20398;-87
2023/11/28 03:42:35;;;;;;;;;;;;;;;16.04;27.70;96080.66;5095237;28;20384;-87
2023/11/28 03:45:01;;;;;;;;;;;;;;;16.70;26.73;96078.38;5093679;28;19924;-88
2023/11/28 03:47:27;;;;;;;;;;;;;;;16.15;27.44;96070.16;5096450;28;19920;-88
2023/11/28 03:49:53;;;;;;;;;;;;;;;17.14;26.05;96060.22;5074130;28;20072;-87
2023/11/28 03:52:19;;;;;;;;;;;;;;;15.75;27.79;96056.38;5096116;28;19920;-87
2023/11/28 03:54:45;;;;;;;;;;;;;;;16.40;27.46;96053.75;5092055;28;19924;-87
2023/11/28 03:57:12;;;;;;;;;;;;;;;16.65;26.96;96044.84;5092327;28;19924;-87
2023/11/28 03:59:38;;;;;;;;;;;;;;;15.71;28.47;96036.31;5095666;28;20020;-87
2023/11/28 04:02:04;;;;;;;;;;;;;;;14.28;30.45;96034.97;5093647;28;20372;-87
2023/11/28 04:04:30;;;;;;;;;;;;;;;12.99;32.93;96039.00;5095641;28;19916;-87
2023/11/28 04:06:56;;;;;;;;;;;;;;;14.35;30.91;96032.88;5092933;28;19920;-87
2023/11/28 04:09:22;;;;;;;;;;;;;;;15.60;28.75;96026.69;5091994;28;19920;-87
2023/11/28 04:11:49;;;;;;;;;;;;;;;15.77;28.59;96022.75;5088744;28;20380;-87
2023/11/28 04:14:15;;;;;;;;;;;;;;;16.17;28.07;96017.91;5076771;28;19931;-87
2023/11/28 04:16:42;;;;;;;;;;;;;;;16.80;26.89;96018.38;5078330;28;19927;-87
2023/11/28 04:19:08;;;;;;;;;;;;;;;16.13;27.75;96015.22;5105732;28;19920;-87
2023/11/28 04:21:34;;;;;;;;;;;;;;;16.29;27.58;96006.16;5106542;28;20398;-87
2023/11/28 04:24:00;;;;;;;;;;;;;;;17.30;26.31;96001.94;5093737;28;20294;-87
2023/11/28 04:26:26;;;;;;;;;;;;;;;17.09;26.59;95995.00;5090285;28;20402;-87
2023/11/28 04:28:52;;;;;;;;;;;;;;;17.28;26.00;95980.22;5096408;28;20368;-87
2023/11/28 04:31:19;;;;;;;;;;;;;;;17.09;26.34;95986.69;5086342;28;20291;-87
2023/11/28 04:33:45;;;;;;;;;;;;;;;16.76;26.89;95981.63;5095388;28;19916;-87
2023/11/28 04:36:15;;;;;;;;;;;;;;;15.83;28.08;95988.63;5095920;28;19975;-87
2023/11/28 04:38:41;;;;;;;;;;;;;;;16.67;27.03;95982.25;5087835;28;19977;-87
2023/11/28 04:41:12;;;;;;;;;;;;;;;16.96;26.87;95974.78;5096032;28;19916;-87
2023/11/28 04:43:38;;;;;;;;;;;;;;;16.52;27.35;95970.75;5078018;28;19952;-87
2023/11/28 04:46:04;;;;;;;;;;;;;;;16.63;27.04;95964.19;5094279;28;19920;-87
2023/11/28 04:48:30;;;;;;;;;;;;;;;14.16;30.71;95961.06;5096249;28;20279;-87
2023/11/28 04:50:56;;;;;;;;;;;;;;;15.95;28.31;95962.25;5092842;28;19966;-87
2023/11/28 04:53:23;;;;;;;;;;;;;;;16.24;27.56;95954.06;5079691;28;19947;-87
2023/11/28 04:55:49;;;;;;;;;;;;;;;15.47;28.76;95946.38;5080060;28;19917;-87
2023/11/28 04:58:15;;;;;;;;;;;;;;;16.08;28.08;95946.53;5084804;28;20355;-87
2023/11/28 05:00:41;;;;;;;;;;;;;;;15.81;28.30;95938.47;5092562;28;19927;-87
2023/11/28 05:03:07;;;;;;;;;;;;;;;16.21;27.79;95932.78;5092499;28;19920;-87
2023/11/28 05:05:34;;;;;;;;;;;;;;;15.37;28.91;95927.97;5093303;28;19939;-87
2023/11/28 05:08:00;;;;;;;;;;;;;;;16.98;26.82;95914.13;5088025;28;19969;-87
2023/11/28 05:10:26;;;;;;;;;;;;;;;17.56;25.83;95906.50;5092445;28;19998;-87
2023/11/28 05:12:53;;;;;;;;;;;;;;;16.85;26.74;95907.75;5089485;28;20019;-87
2023/11/28 05:15:20;;;;;;;;;;;;;;;17.60;25.93;95898.06;5081421;28;19920;-87
2023/11/28 05:17:46;;;;;;;;;;;;;;;16.67;27.03;95907.47;5095610;28;20319;-87
2023/11/28 05:20:12;;;;;;;;;;;;;;;16.75;27.16;95908.06;5086339;28;20047;-87
2023/11/28 05:22:38;;;;;;;;;;;;;;;17.95;25.50;95900.50;5087111;28;19931;-86
2023/11/28 05:25:06;;;;;;;;;;;;;;;18.36;24.74;95890.44;5069073;28;20287;-88
2023/11/28 05:27:32;;;;;;;;;;;;;;;18.28;25.00;95889.09;5086472;28;20376;-87
2023/11/28 05:29:58;;;;;;;;;;;;;;;18.56;24.52;95883.41;5078327;28;19925;-87
2023/11/28 05:32:24;;;;;;;;;;;;;;;17.39;25.71;95879.25;5086813;28;19974;-86
2023/11/28 05:34:50;;;;;;;;;;;;;;;16.95;26.38;95890.06;5095444;28;19963;-86
2023/11/28 05:37:16;;;;;;;;;;;;;;;17.77;25.16;95882.84;5090879;28;19920;-85
2023/11/28 05:39:42;;;;;;;;;;;;;;;17.57;25.47;95880.31;5086345;28;19920;-86
2023/11/28 05:42:09;;;;;;;;;;;;;;;16.24;26.84;95888.38;5088826;28;19927;-83
2023/11/28 05:44:35;;;;;;;;;;;;;;;14.58;29.38;95885.00;5089072;28;19965;-86
2023/11/28 05:47:01;;;;;;;;;;;;;;;14.96;28.94;95883.47;5077387;28;19924;-84
2023/11/28 05:49:27;;;;;;;;;;;;;;;15.86;27.70;95877.09;5083458;28;19920;-85
2023/11/28 05:51:53;;;;;;;;;;;;;;;15.18;28.71;95877.06;5087256;28;19927;-85
2023/11/28 05:54:19;;;;;;;;;;;;;;;13.99;30.05;95880.13;5094714;28;19924;-85
2023/11/28 05:56:47;;;;;;;;;;;;;;;13.37;31.36;95885.47;5087008;28;19920;-86
2023/11/28 05:59:13;;;;;;;;;;;;;;;13.56;31.12;95882.03;5087521;28;19920;-86
2023/11/28 06:01:55;;;;;;;;;;;;;;;13.37;31.54;95880.72;5093209;28;19920;-86
2023/11/28 06:04:21;;;;;;;;;;;;;;;12.99;31.93;95882.81;5090780;28;20395;-86
2023/11/28 06:06:47;;;;;;;;;;;;;;;12.82;32.14;95886.56;5074631;28;20018;-86
2023/11/28 06:09:13;;;;;;;;;;;;;;;13.92;30.53;95885.78;5076731;28;19920;-86
2023/11/28 06:11:39;;;;;;;;;;;;;;;14.15;30.10;95894.03;5089305;28;19939;-86
2023/11/28 06:14:05;;;;;;;;;;;;;;;14.14;30.12;95884.19;5093081;28;19927;-86
2023/11/28 06:16:31;;;;;;;;;;;;;;;14.74;29.04;95879.56;5094695;28;20009;-86
2023/11/28 06:18:57;;;;;;;;;;;;;;;14.63;29.29;95879.00;5093258;28;19920;-86
2023/11/28 06:21:23;;;;;;;;;;;;;;;16.11;27.04;95873.69;5092580;28;20417;-86
2023/11/28 06:23:49;;;;;;;;;;;;;;;16.82;26.17;95874.59;5094936;28;19927;-86
2023/11/28 06:26:16;;;;;;;;;;;;;;;16.80;26.04;95872.28;5094291;28;20260;-86
2023/11/28 06:28:42;;;;;;;;;;;;;;;17.65;25.07;95866.97;5094141;28;19967;-86
2023/11/28 06:31:09;;;;;;;;;;;;;;;17.38;25.22;95875.72;5093810;28;19923;-86
2023/11/28 06:33:35;;;;;;;;;;;;;;;17.56;25.09;95875.97;5094250;28;20015;-87
2023/11/28 06:36:02;;;;;;;;;;;;;;;17.62;25.06;95865.88;5090857;28;20375;-86
2023/11/28 06:38:28;;;;;;;;;;;;;;;17.97;24.27;95869.50;5082526;28;19973;-86
2023/11/28 06:40:54;;;;;;;;;;;;;;;16.70;26.06;95867.81;5093321;28;20400;-86
2023/11/28 06:43:21;;;;;;;;;;;;;;;17.02;25.82;95877.97;5090149;28;20426;-86
2023/11/28 06:45:47;;;;;;;;;;;;;;;16.78;26.05;95873.94;5087940;28;19920;-86
2023/11/28 06:48:13;;;;;;;;;;;;;;;18.45;24.12;95869.09;5068399;28;20091;-86
2023/11/28 06:50:39;;;;;;;;;;;;;;;18.44;23.78;95861.94;5089852;28;20014;-86
2023/11/28 06:53:05;;;;;;;;;;;;;;;17.66;24.90;95860.22;5085133;28;19931;-86
2023/11/28 06:55:31;;;;;;;;;;;;;;;16.90;25.97;95862.88;5088271;28;19920;-86
2023/11/28 06:57:57;;;;;;;;;;;;;;;16.53;26.42;95860.75;5084817;28;19973;-86
2023/11/28 07:00:23;;;;;;;;;;;;;;;16.99;25.83;95868.53;5084240;28;19927;-87
2023/11/28 07:02:50;;;;;;;;;;;;;;;15.94;27.16;95865.84;5086686;28;20368;-86
2023/11/28 07:05:16;;;;;;;;;;;;;;;17.07;26.31;95855.25;5092551;28;19920;-86
2023/11/28 07:07:42;;;;;;;;;;;;;;;18.03;24.90;95862.19;5092661;28;20307;-87
2023/11/28 07:10:09;;;;;;;;;;;;;;;17.43;25.42;95853.00;5091451;28;19939;-86
2023/11/28 07:12:35;;;;;;;;;;;;;;;17.74;25.06;95858.75;5091530;28;19924;-86
2023/11/28 07:15:02;;;;;;;;;;;;;;;17.29;25.38;95853.41;5090609;28;20011;-86
2023/11/28 07:17:28;;;;;;;;;;;;;;;18.52;24.00;95856.97;5088195;28;19920;-87
2023/11/28 07:19:54;;;;;;;;;;;;;;;18.21;24.19;95851.25;5088362;28;19988;-87
2023/11/28 07:22:21;;;;;;;;;;;;;;;18.48;24.10;95847.97;5092795;28;20410;-87
2023/11/28 07:24:47;;;;;;;;;;;;;;;19.19;23.39;95848.94;5093760;28;19927;-87
2023/11/28 07:27:13;;;;;;;;;;;;;;;18.88;23.83;95850.91;5075363;28;20367;-87
2023/11/28 07:29:39;;;;;;;;;;;;;;;18.71;23.99;95853.13;5074057;28;20057;-87
2023/11/28 07:32:05;;;;;;;;;;;;;;;17.37;25.44;95856.72;5089146;28;19927;-87
2023/11/28 07:34:33;;;;;;;;;;;;;;;15.58;27.77;95861.16;5083143;28;19931;-87
2023/11/28 07:36:59;;;;;;;;;;;;;;;14.75;29.14;95859.78;5089179;28;19920;-87
2023/11/28 07:39:25;;;;;;;;;;;;;;;16.51;27.04;95860.41;5088573;28;19927;-87
2023/11/28 07:41:52;;;;;;;;;;;;;;;17.41;25.85;95849.84;5074757;28;19924;-87
2023/11/28 07:44:18;;;;;;;;;;;;;;;17.26;25.79;95841.22;5081433;28;19920;-87
2023/11/28 07:46:44;;;;;;;;;;;;;;;18.50;24.59;95846.31;5085926;28;20007;-87
2023/11/28 07:49:10;;;;;;;;;;;;;;;18.84;23.99;95844.69;5079678;28;19938;-87
2023/11/28 07:51:36;;;;;;;;;;;;;;;17.21;25.60;95844.53;5092166;28;19920;-86
2023/11/28 07:54:03;;;;;;;;;;;;;;;17.39;25.80;95841.19;5097483;28;19945;-87
2023/11/28 07:56:30;;;;;;;;;;;;;;;17.79;25.32;95838.78;5089596;28;19920;-86
2023/11/28 07:58:56;;;;;;;;;;;;;;;17.40;25.43;95836.44;5084134;28;19920;-86
2023/11/28 08:01:22;;;;;;;;;;;;;;;17.67;25.50;95839.56;5084743;28;19916;-89
2023/11/28 08:03:49;;;;;;;;;;;;;;;17.01;26.28;95834.84;5086484;28;19920;-88
2023/11/28 08:06:17;;;;;;;;;;;;;;;16.73;26.99;95838.44;5090022;28;19924;-87
2023/11/28 08:08:43;;;;;;;;;;;;;;;14.83;29.77;95838.34;5092361;28;19923;-87
2023/11/28 08:11:10;;;;;;;;;;;;;;;14.66;29.93;95833.94;5092134;28;19927;-87
2023/11/28 08:13:36;;;;;;;;;;;;;;;14.87;30.13;95837.06;5091592;28;19975;-87
2023/11/28 08:16:03;;;;;;;;;;;;;;;14.50;30.28;95834.66;5092162;28;19920;-87
2023/11/28 08:18:29;;;;;;;;;;;;;;;13.55;32.26;95839.91;5093796;28;19920;-86
2023/11/28 08:20:55;;;;;;;;;;;;;;;13.67;31.71;95842.06;5088502;28;20361;-86
2023/11/28 08:23:22;;;;;;;;;;;;;;;13.85;31.91;95830.72;5089821;28;19973;-87
2023/11/28 08:25:49;;;;;;;;;;;;;;;15.37;29.10;95833.19;5096634;28;20303;-87
2023/11/28 08:28:15;;;;;;;;;;;;;;;16.06;28.18;95824.41;5096120;28;19924;-86
2023/11/28 08:30:41;;;;;;;;;;;;;;;15.88;28.26;95835.16;5096165;28;20679;-87
2023/11/28 08:33:07;;;;;;;;;;;;;;;15.10;29.73;95834.19;5094854;28;19988;-87
2023/11/28 08:35:33;;;;;;;;;;;;;;;15.93;28.38;95840.16;5096349;28;19920;-87
2023/11/28 08:38:00;;;;;;;;;;;;;;;17.62;26.03;95829.03;5087977;28;19987;-87
2023/11/28 08:40:26;;;;;;;;;;;;;;;17.46;26.10;95826.34;5076340;28;19952;-87
2023/11/28 08:42:52;;;;;;;;;;;;;;;17.20;26.63;95828.31;5076296;28;19924;-87
2023/11/28 08:45:18;;;;;;;;;;;;;;;17.79;25.83;95827.69;5094127;28;19924;-87
2023/11/28 08:47:44;;;;;;;;;;;;;;;16.80;26.98;95822.41;5094924;28;20410;-87
2023/11/28 08:50:12;;;;;;;;;;;;;;;16.52;27.67;95823.97;5095065;28;19912;-87
2023/11/28 08:52:38;;;;;;;;;;;;;;;15.29;29.21;95832.56;5094911;28;19926;-87
2023/11/28 08:55:05;;;;;;;;;;;;;;;15.16;29.68;95826.19;5094477;28;20287;-87
2023/11/28 08:57:34;;;;;;;;;;;;;;;15.89;28.66;95823.63;5095033;28;19998;-87
2023/11/28 09:00:04;;;;;;;;;;;;;;;17.38;26.72;95809.16;5091632;28;19923;-87
2023/11/28 09:02:30;;;;;;;;;;;;;;;18.30;25.41;95806.88;5094884;28;19916;-87
2023/11/28 09:04:56;;;;;;;;;;;;;;;18.23;25.32;95809.13;5094616;28;20257;-87
2023/11/28 09:07:22;;;;;;;;;;;;;;;18.19;25.60;95803.72;5094490;28;20018;-87
2023/11/28 09:09:48;;;;;;;;;;;;;;;17.63;26.09;95809.16;5094578;28;19920;-87
2023/11/28 09:12:16;;;;;;;;;;;;;;;16.52;27.35;95812.88;5093303;28;19920;-86
2023/11/28 09:14:42;;;;;;;;;;;;;;;17.19;27.08;95808.16;5094688;28;19923;-87
2023/11/28 09:17:08;;;;;;;;;;;;;;;16.03;28.50;95807.91;5094486;28;19916;-86
2023/11/28 09:19:35;;;;;;;;;;;;;;;15.86;29.25;95807.94;5093805;28;20392;-86
2023/11/28 09:22:02;;;;;;;;;;;;;;;16.03;28.70;95813.44;5094390;28;19969;-86
2023/11/28 09:24:31;;;;;;;;;;;;;;;15.98;28.70;95811.19;5094182;28;20003;-86
2023/11/28 09:27:00;;;;;;;;;;;;;;;17.48;26.67;95810.81;5094312;28;20338;-87
2023/11/28 09:29:26;;;;;;;;;;;;;;;16.73;27.72;95796.88;5072180;28;19920;-87
2023/11/28 09:31:54;;;;;;;;;;;;;;;16.23;28.81;95801.00;5094291;28;19912;-86
2023/11/28 09:34:21;;;;;;;;;;;;;;;17.50;26.70;95791.75;5094269;28;20022;-86
2023/11/28 09:36:47;;;;;;;;;;;;;;;16.58;27.70;95788.19;5095598;28;19916;-87
2023/11/28 09:39:13;;;;;;;;;;;;;;;15.75;28.64;95798.34;5095085;28;19920;-86
2023/11/28 09:41:43;;;;;;;;;;;;;;;14.86;30.68;95801.59;5095317;28;19916;-86
2023/11/28 09:44:13;;;;;;;;;;;;;;;15.43;29.60;95793.53;5101583;28;19919;-86
2023/11/28 09:46:41;;;;;;;;;;;;;;;15.72;28.69;95790.91;5091918;28;19921;-86
2023/11/28 09:49:08;;;;;;;;;;;;;;;15.20;29.69;95788.19;5095527;28;19919;-86
2023/11/28 09:51:37;;;;;;;;;;;;;;;14.42;31.11;95781.56;5095263;28;19920;-86
2023/11/28 09:54:03;;;;;;;;;;;;;;;14.33;31.41;95775.84;5095153;28;20340;-86
2023/11/28 09:56:30;;;;;;;;;;;;;;;14.08;31.67;95778.28;5092958;28;19920;-86
2023/11/28 09:59:00;;;;;;;;;;;;;;;16.05;28.90;95764.75;5095238;28;19916;-85
2023/11/28 10:01:26;;;;;;;;;;;;;;;15.02;30.27;95766.50;5095133;28;19916;-85
2023/11/28 10:03:53;;;;;;;;;;;;;;;14.64;30.84;95757.06;5078313;28;19970;-86
2023/11/28 10:06:21;;;;;;;;;;;;;;;16.06;29.00;95751.66;5074895;28;20368;-86
2023/11/28 10:08:47;;;;;;;;;;;;;;;16.39;28.39;95748.34;5074178;28;19952;-86
2023/11/28 10:11:16;;;;;;;;;;;;;;;16.13;29.00;95749.47;5089919;28;19926;-85
2023/11/28 10:13:46;;;;;;;;;;;;;;;15.49;29.90;95749.59;5094505;28;19920;-86
2023/11/28 10:16:13;;;;;;;;;;;;;;;15.38;30.09;95760.13;5090499;28;20347;-86
2023/11/28 10:18:43;;;;;;;;;;;;;;;17.15;27.77;95735.38;5076102;28;19960;-86
2023/11/28 10:21:09;;;;;;;;;;;;;;;18.39;25.90;95739.53;5085937;28;19920;-86
2023/11/28 10:23:36;;;;;;;;;;;;;;;16.41;28.12;95736.81;5091445;28;19930;-86
2023/11/28 10:26:03;;;;;;;;;;;;;;;15.64;29.22;95739.72;5076447;28;19969;-85
2023/11/28 10:28:29;;;;;;;;;;;;;;;13.24;33.05;95744.72;5094601;28;20287;-86
2023/11/28 10:30:55;;;;;;;;;;;;;;;13.13;33.48;95742.16;5094624;28;20010;-86
2023/11/28 10:33:22;;;;;;;;;;;;;;;13.21;33.75;95737.28;5094208;28;19920;-85
2023/11/28 10:35:48;;;;;;;;;;;;;;;14.39;31.27;95740.25;5093658;28;20272;-85
2023/11/28 10:38:15;;;;;;;;;;;;;;;14.25;31.53;95740.53;5091696;28;19939;-85
2023/11/28 10:40:42;;;;;;;;;;;;;;;13.79;32.31;95728.38;5073591;28;19939;-85
2023/11/28 10:43:09;;;;;;;;;;;;;;;14.44;31.56;95728.72;5092827;28;19916;-85
2023/11/28 10:45:35;;;;;;;;;;;;;;;13.22;33.27;95729.81;5092207;28;19924;-85
2023/11/28 10:48:02;;;;;;;;;;;;;;;13.06;33.70;95728.50;5086932;28;19924;-84
2023/11/28 10:50:29;;;;;;;;;;;;;;;13.42;33.14;95736.94;5090957;28;19920;-84
2023/11/28 10:52:57;;;;;;;;;;;;;;;14.34;32.05;95733.25;5072040;28;20032;-84
2023/11/28 10:55:26;;;;;;;;;;;;;;;13.93;32.23;95732.09;5070580;28;20276;-84
2023/11/28 10:58:01;;;;;;;;;;;;;;;14.91;30.82;95726.50;5071938;28;19924;-84
2023/11/28 11:00:28;;;;;;;;;;;;;;;13.64;32.97;95727.09;5090107;28;19920;-84
2023/11/28 11:02:55;;;;;;;;;;;;;;;14.29;32.08;95717.16;5088416;28;19921;-84
2023/11/28 11:05:23;;;;;;;;;;;;;;;15.66;29.66;95713.19;5071657;28;19966;-84
2023/11/28 11:07:50;;;;;;;;;;;;;;;15.94;29.07;95717.19;5070680;28;19926;-84
2023/11/28 11:10:17;;;;;;;;;;;;;;;14.56;31.08;95719.78;5074800;28;19924;-84
2023/11/28 11:12:45;;;;;;;;;;;;;;;13.00;33.76;95719.09;5091971;28;19916;-84
2023/11/28 11:15:12;;;;;;;;;;;;;;;13.16;33.70;95721.25;5091703;28;19928;-84
2023/11/28 11:18:02;;;;;;;;;;;;;;;13.34;33.45;95718.19;5091805;28;19920;-83
2023/11/28 11:20:30;;;;;;;;;;;;;;;14.14;32.21;95726.91;5091962;28;19989;-83
2023/11/28 11:22:58;;;;;;;;;;;;;;;14.26;31.74;95723.53;5093677;28;19924;-82
2023/11/28 11:25:43;;;;;;;;;;;;;;;14.38;31.64;95722.91;5094107;28;19916;-82
2023/11/28 11:28:09;;;;;;;;;;;;;;;13.68;32.77;95721.53;5090684;28;20015;-82
2023/11/28 11:30:36;;;;;;;;;;;;;;;12.76;34.45;95722.25;5081743;28;19921;-83
2023/11/28 11:33:04;;;;;;;;;;;;;;;13.93;32.88;95719.09;5083462;28;19916;-83
2023/11/28 11:35:31;;;;;;;;;;;;;;;14.66;31.31;95726.25;5093270;28;20409;-83
2023/11/28 11:38:00;;;;;;;;;;;;;;;13.07;33.23;95723.75;5093632;28;19924;-82
2023/11/28 11:40:27;;;;;;;;;;;;;;;12.17;34.94;95730.13;5093508;28;20268;-82
2023/11/28 11:42:53;;;;;;;;;;;;;;;14.56;31.33;95728.06;5090550;28;20003;-83
2023/11/28 11:45:20;;;;;;;;;;;;;;;15.04;30.53;95736.44;5074379;28;19916;-83
2023/11/28 11:47:46;;;;;;;;;;;;;;;16.54;28.00;95727.38;5076280;28;19916;-84
2023/11/28 11:50:19;;;;;;;;;;;;;;;16.27;28.13;95723.38;5076661;28;19917;-82
2023/11/28 11:52:45;;;;;;;;;;;;;;;15.38;29.78;95732.47;5092290;28;19931;-82
2023/11/28 11:55:12;;;;;;;;;;;;;;;15.67;29.14;95736.09;5097445;28;20307;-82
2023/11/28 11:57:39;;;;;;;;;;;;;;;16.20;28.44;95734.66;5090045;28;19921;-83
2023/11/28 12:00:06;;;;;;;;;;;;;;;15.91;28.55;95731.91;5091655;28;19923;-83
2023/11/28 12:02:35;;;;;;;;;;;;;;;15.16;29.71;95746.03;5084337;28;19966;-83
2023/11/28 12:05:01;;;;;;;;;;;;;;;13.73;32.11;95741.13;5097096;28;19920;-83
2023/11/28 12:07:28;;;;;;;;;;;;;;;13.36;32.61;95740.59;5097073;28;19924;-83
2023/11/28 12:09:55;;;;;;;;;;;;;;;12.71;33.97;95748.28;5097219;28;19916;-82
2023/11/28 12:12:22;;;;;;;;;;;;;;;12.52;34.54;95748.13;5079142;28;19920;-82
2023/11/28 12:14:48;;;;;;;;;;;;;;;12.78;33.97;95745.41;5095351;28;19960;-83
2023/11/28 12:17:19;;;;;;;;;;;;;;;12.63;34.28;95743.25;5076850;28;19970;-82
2023/11/28 12:19:45;;;;;;;;;;;;;;;12.68;34.45;95743.59;5079356;28;19927;-82
2023/11/28 12:22:13;;;;;;;;;;;;;;;13.14;33.21;95740.16;5095650;28;19930;-82
2023/11/28 12:24:39;;;;;;;;;;;;;;;14.23;31.45;95746.47;5097324;28;19981;-82
2023/11/28 12:27:07;;;;;;;;;;;;;;;15.55;29.20;95740.34;5097222;28;19993;-82
2023/11/28 12:29:34;;;;;;;;;;;;;;;17.15;27.10;95738.16;5095856;28;19927;-82
2023/11/28 12:32:02;;;;;;;;;;;;;;;17.90;25.75;95742.03;5096097;28;20218;-82
2023/11/28 12:34:29;;;;;;;;;;;;;;;18.04;25.92;95743.56;5096794;28;19916;-82
2023/11/28 12:36:56;;;;;;;;;;;;;;;15.95;28.01;95748.41;5079819;28;19960;-82
2023/11/28 12:39:24;;;;;;;;;;;;;;;13.95;31.47;95754.50;5088987;28;20018;-82
2023/11/28 12:41:50;;;;;;;;;;;;;;;12.06;35.18;95762.47;5096758;28;20050;-81
2023/11/28 12:44:20;;;;;;;;;;;;;;;14.42;30.95;95753.22;5103686;28;20362;-82